createdAt,value
2022-10-05T00:03:43.573Z,100108.56
2022-10-05T00:08:45.944Z,100108.47
2022-10-05T00:13:48.363Z,100114.44
2022-10-05T00:18:51.512Z,100115.47
2022-10-05T00:23:55.815Z,100117.69
2022-10-05T00:29:07.194Z,100120.94
2022-10-05T00:34:15.494Z,100129.25
2022-10-05T00:39:18.248Z,100118.53
2022-10-05T00:44:20.545Z,100116.97
2022-10-05T00:49:31.764Z,100074.84
2022-10-05T00:54:37.070Z,100116.19
2022-10-05T00:59:49.161Z,100125.81
2022-10-05T01:04:59.335Z,100114.25
2022-10-05T01:10:01.531Z,100114.06
2022-10-05T01:15:16.356Z,100107.19
2022-10-05T01:20:36.418Z,100094.16
2022-10-05T01:25:56.940Z,100108.47
2022-10-05T01:30:59.161Z,100089.16
2022-10-05T01:36:29.465Z,100101.38
2022-10-05T01:41:32.634Z,100111.88
2022-10-05T01:46:45.039Z,100103.56
2022-10-05T01:52:06.332Z,100107.63
2022-10-05T01:57:11.662Z,100109.16
2022-10-05T02:02:23.302Z,100113.53
2022-10-05T02:07:54.835Z,100121.91
2022-10-05T02:13:16.032Z,100128.22
2022-10-05T02:18:20.518Z,100127.13
2022-10-05T02:23:27.603Z,100119.16
2022-10-05T02:28:45.580Z,100138.16
2022-10-05T02:33:48.024Z,100139.22
2022-10-05T02:39:17.968Z,100131.84
2022-10-05T02:44:29.827Z,100129.56
2022-10-05T02:49:39.667Z,100122.88
2022-10-05T02:54:47.068Z,100121.38
2022-10-05T03:00:02.526Z,100115.41
2022-10-05T03:05:08.053Z,100116.75
2022-10-05T03:10:34.811Z,100115.75
2022-10-05T03:15:42.717Z,100113.06
2022-10-05T03:20:55.912Z,100103.88
2022-10-05T03:32:47.672Z,100101.28
2022-10-05T03:38:06.429Z,100081.09
2022-10-05T03:43:30.716Z,100093.03
2022-10-05T03:48:49.125Z,100082.25
2022-10-05T03:54:02.179Z,100088.91
2022-10-05T03:59:15.326Z,100083.97
2022-10-05T04:04:23.074Z,100092.84
2022-10-05T04:09:33.234Z,100106.97
2022-10-05T04:14:45.243Z,100105.06
2022-10-05T04:19:59.160Z,100110.84
2022-10-05T04:25:06.603Z,100122.06
2022-10-05T04:30:12.637Z,100112.69
2022-10-05T04:35:18.271Z,100126.88
2022-10-05T04:40:39.433Z,100133.94
2022-10-05T04:45:48.787Z,100130.44
2022-10-05T04:51:08.010Z,100126.72
2022-10-05T04:56:16.257Z,100123.72
2022-10-05T05:01:30.237Z,100142.13
2022-10-05T05:06:45.811Z,100130.97
2022-10-05T05:11:55.305Z,100141.66
2022-10-05T05:17:15.083Z,100144.19
2022-10-05T05:22:20.473Z,100143.63
2022-10-05T05:27:40.822Z,100135.81
2022-10-05T05:33:03.885Z,100150.19
2022-10-05T05:38:44.676Z,100136.66
2022-10-05T05:44:07.867Z,100135.91
2022-10-05T05:55:05.381Z,100156.44
2022-10-05T06:00:16.753Z,100164.75
2022-10-05T06:05:36.345Z,100161.91
2022-10-05T06:10:44.201Z,100162.84
2022-10-05T06:15:52.107Z,100162.38
2022-10-05T06:21:03.762Z,100164.75
2022-10-05T06:26:16.252Z,100153.66
2022-10-05T06:31:35.183Z,100153.09
2022-10-05T06:36:43.537Z,100147.47
2022-10-05T06:41:46.188Z,100152.56
2022-10-05T06:47:00.957Z,100166.44
2022-10-05T06:52:30.199Z,100172.84
2022-10-05T06:57:53.517Z,100174.38
2022-10-05T07:03:16.637Z,100180.59
2022-10-05T07:08:23.234Z,100187.44
2022-10-05T07:13:32.058Z,100185.41
2022-10-05T07:18:35.828Z,100181.00
2022-10-05T07:23:48.163Z,100183.56
2022-10-05T07:29:15.820Z,100186.19
2022-10-05T07:34:20.095Z,100197.31
2022-10-05T07:39:59.559Z,100201.38
2022-10-05T07:45:10.117Z,100206.97
2022-10-05T07:50:31.640Z,100216.66
2022-10-05T07:55:37.196Z,100233.16
2022-10-05T08:00:49.106Z,100194.78
2022-10-05T08:05:52.921Z,100226.00
2022-10-05T08:11:18.507Z,100215.06
2022-10-05T08:16:24.754Z,100219.16
2022-10-05T08:28:12.857Z,100222.94
2022-10-05T08:33:22.645Z,100214.19
2022-10-05T08:38:30.646Z,100221.25
2022-10-05T08:43:35.788Z,100231.44
2022-10-05T08:48:44.063Z,100232.75
2022-10-05T08:54:06.093Z,100231.66
2022-10-05T08:59:18.204Z,100239.63
2022-10-05T09:04:30.177Z,100240.19
2022-10-05T09:09:38.434Z,100237.06
2022-10-05T09:20:27.042Z,100247.72
2022-10-05T09:25:46.221Z,100248.50
2022-10-05T09:30:56.703Z,100245.06
2022-10-05T09:36:05.005Z,100243.31
2022-10-05T09:41:30.372Z,100247.84
2022-10-05T09:46:32.886Z,100247.44
2022-10-05T09:51:54.558Z,100243.22
2022-10-05T09:57:19.714Z,100246.22
2022-10-05T10:02:22.243Z,100247.56
2022-10-05T10:07:25.658Z,100248.69
2022-10-05T10:12:43.154Z,100257.72
2022-10-05T10:18:08.764Z,100263.94
2022-10-05T10:23:28.592Z,100241.88
2022-10-05T10:28:33.464Z,100264.13
2022-10-05T10:33:55.656Z,100244.22
2022-10-05T10:38:58.661Z,100261.19
2022-10-05T10:45:13.608Z,100224.72
2022-10-05T10:50:28.482Z,100254.03
2022-10-05T10:55:38.629Z,100247.69
2022-10-05T11:00:46.093Z,100247.44
2022-10-05T11:06:11.957Z,100236.19
2022-10-05T11:11:33.281Z,100232.97
2022-10-05T11:16:55.721Z,100229.41
2022-10-05T11:22:37.101Z,100210.16
2022-10-05T11:27:49.110Z,100216.94
2022-10-05T11:32:56.435Z,100196.22
2022-10-05T11:38:09.839Z,100209.44
2022-10-05T11:43:25.864Z,100196.06
2022-10-05T11:48:59.536Z,100203.31
2022-10-05T11:54:22.241Z,100193.28
2022-10-05T11:59:51.828Z,100190.13
2022-10-05T12:05:22.341Z,100188.00
2022-10-05T12:10:45.172Z,100180.53
2022-10-05T12:16:08.992Z,100174.47
2022-10-05T12:21:13.148Z,100166.88
2022-10-05T12:26:20.753Z,100162.25
2022-10-05T12:31:33.600Z,100165.66
2022-10-05T12:37:03.526Z,100165.66
2022-10-05T12:42:18.580Z,100159.53
2022-10-05T12:47:39.544Z,100156.13
2022-10-05T12:53:01.105Z,100155.09
2022-10-05T12:58:07.695Z,100155.91
2022-10-05T13:03:19.753Z,100153.56
2022-10-05T13:08:32.443Z,100150.44
2022-10-05T13:13:57.338Z,100150.44
2022-10-05T13:19:04.196Z,100155.00
2022-10-05T13:24:09.504Z,100149.88
2022-10-05T13:29:30.746Z,100143.88
2022-10-05T13:34:55.467Z,100145.97
2022-10-05T13:40:06.824Z,100158.69
2022-10-05T13:45:25.894Z,100144.16
2022-10-05T13:50:33.630Z,100144.47
2022-10-05T13:55:55.649Z,100139.41
2022-10-05T14:01:04.340Z,100147.91
2022-10-05T14:06:14.130Z,100141.00
2022-10-05T14:11:26.761Z,100149.16
2022-10-05T14:16:31.082Z,100147.88
2022-10-05T14:21:42.995Z,100148.72
2022-10-05T14:26:51.475Z,100146.91
2022-10-05T14:31:58.155Z,100140.91
2022-10-05T14:37:29.743Z,100131.25
2022-10-05T14:42:47.136Z,100130.94
2022-10-05T14:48:10.014Z,100125.22
2022-10-05T14:53:16.122Z,100121.19
2022-10-05T14:58:36.434Z,100132.84
2022-10-05T15:03:55.757Z,100132.59
2022-10-05T15:09:21.226Z,100134.94
2022-10-05T15:14:37.039Z,100130.38
2022-10-05T15:19:53.926Z,100126.47
2022-10-05T15:25:15.201Z,100136.59
2022-10-05T15:30:18.559Z,100129.50
2022-10-05T15:35:40.446Z,100131.03
2022-10-05T15:40:55.450Z,100136.50
2022-10-05T15:45:57.725Z,100141.00
2022-10-05T15:51:28.631Z,100148.94
2022-10-05T15:56:36.451Z,100159.13
2022-10-05T16:02:00.597Z,100163.25
2022-10-05T16:07:21.741Z,100166.94
2022-10-05T16:12:36.683Z,100171.16
2022-10-05T16:17:41.038Z,100174.97
2022-10-05T16:23:02.288Z,100171.06
2022-10-05T16:28:11.780Z,100176.72
2022-10-05T16:33:34.282Z,100191.69
2022-10-05T16:38:38.477Z,100193.06
2022-10-05T16:44:09.907Z,100196.38
2022-10-05T16:49:19.418Z,100195.94
2022-10-05T16:54:21.700Z,100203.94
2022-10-05T16:59:53.713Z,100205.31
2022-10-05T17:05:24.424Z,100209.63
2022-10-05T17:10:44.612Z,100214.34
2022-10-05T17:16:03.559Z,100224.91
2022-10-05T17:21:15.188Z,100225.38
2022-10-05T17:26:23.305Z,100230.19
2022-10-05T17:31:29.074Z,100233.91
2022-10-05T17:36:44.767Z,100204.69
2022-10-05T17:41:49.771Z,100245.34
2022-10-05T17:46:56.138Z,100248.13
2022-10-05T17:52:18.111Z,100249.38
2022-10-05T17:57:27.969Z,100255.34
2022-10-05T18:02:36.554Z,100254.47
2022-10-05T18:07:44.426Z,100252.66
2022-10-05T18:12:51.501Z,100255.53
2022-10-05T18:17:59.208Z,100265.31
2022-10-05T18:23:12.196Z,100262.69
2022-10-05T18:28:17.625Z,100267.47
2022-10-05T18:33:21.181Z,100271.16
2022-10-05T18:38:42.251Z,100269.31
2022-10-05T18:43:53.738Z,100265.84
2022-10-05T18:49:04.149Z,100278.25
2022-10-05T18:54:06.318Z,100272.31
2022-10-05T18:59:24.516Z,100274.88
2022-10-05T19:04:40.866Z,100289.47
2022-10-05T19:09:49.866Z,100284.34
2022-10-05T19:15:13.453Z,100289.59
2022-10-05T19:20:34.120Z,100298.53
2022-10-05T19:25:40.126Z,100297.81
2022-10-05T19:30:45.501Z,100295.13
2022-10-05T19:35:50.943Z,100302.22
2022-10-05T19:41:02.614Z,100294.53
2022-10-05T19:46:04.802Z,100305.53
2022-10-05T19:51:12.790Z,100304.75
2022-10-05T19:56:20.545Z,100304.75
2022-10-05T20:01:34.059Z,100321.78
2022-10-05T20:06:37.151Z,100322.53
2022-10-05T20:11:48.554Z,100321.69
2022-10-05T20:17:29.368Z,100326.78
2022-10-05T20:22:36.575Z,100333.59
2022-10-05T20:27:48.585Z,100326.41
2022-10-05T20:32:52.752Z,100325.31
2022-10-05T20:37:59.162Z,100326.91
2022-10-05T20:43:01.639Z,100318.34
2022-10-05T20:48:03.985Z,100326.47
2022-10-05T20:53:11.572Z,100322.81
2022-10-05T20:58:18.117Z,100330.25
2022-10-05T21:03:20.634Z,100324.38
2022-10-05T21:08:22.970Z,100320.63
2022-10-05T21:13:30.262Z,100313.19
2022-10-05T21:18:44.168Z,100316.72
2022-10-05T21:23:47.066Z,100324.28
2022-10-05T21:28:49.414Z,100328.50
2022-10-05T21:33:51.776Z,100322.13
2022-10-05T21:38:56.513Z,100314.13
2022-10-05T21:44:09.122Z,100316.41
2022-10-05T21:49:14.177Z,100317.34
2022-10-05T21:54:21.278Z,100325.16
2022-10-05T21:59:26.669Z,100326.84
2022-10-05T22:09:47.972Z,100329.78
2022-10-05T22:14:50.775Z,100326.78
2022-10-05T22:19:54.422Z,100328.22
2022-10-05T22:24:56.700Z,100328.63
2022-10-05T22:30:00.352Z,100318.50
2022-10-05T22:35:02.677Z,100316.22
2022-10-05T22:40:05.846Z,100310.19
2022-10-05T22:45:08.882Z,100314.00
2022-10-05T22:50:13.809Z,100306.78
2022-10-05T22:55:16.176Z,100305.13
2022-10-05T23:00:18.788Z,100305.91
2022-10-05T23:05:20.981Z,100317.06
2022-10-05T23:10:26.219Z,100308.84
2022-10-05T23:15:28.436Z,100303.78
2022-10-05T23:20:30.717Z,100291.44
2022-10-05T23:25:33.018Z,100298.56
2022-10-05T23:30:35.331Z,100295.75
2022-10-05T23:35:38.336Z,100291.78
2022-10-05T23:40:44.888Z,100298.38
2022-10-05T23:45:47.374Z,100289.25
2022-10-05T23:50:49.815Z,100291.88
2022-10-05T23:55:53.855Z,100289.25
